Accueil
METAR-TAF:

METAR-TAF

Aéroports :

Aéroport international Saint-Gall-Altenrhein

Saint-Gall, Suisse

latitude: 47-29-06N, longitude: 009-33-43E, altitude: 398 m

Observation

Le bulletin a été fait il y a 26 minutes, à 21:50 UTC
Vent 3 kt de est/sud-est
Température -1°C
Humidité 93%
Pression 1005 hPa
Visibilité: 9000 m

METAR: LSZR 192150Z AUTO 12003KT 9000 NSC M01/M02 Q1005

Heure: 23:16 (22:16 UTC)

Prévision

Le bulletin a été fait il y a 7 heures et 51 minutes, à 14:25 UTC
Prévision valable du 19 à 15 UTC au 19 à 24 UTC
Vent 11 kt de nord-est
Visibilité 10 km ou plus
Nuages fragmentés à une hauteur de 2500 ft
Evoluant progressivement
du 19 à 17 UTC au 19 à 19 UTC
Vent 3 kt de direction variable
Evoluant progressivement
du 19 à 19 UTC au 19 à 22 UTC
Nuages fragmentés à une hauteur de 1200 ft

TAF: LSZR 191425Z 1915/1924 04011KT 9999 BKN025 BECMG 1917/1919 VRB03KT BECMG 1919/1922 BKN012

Observations et prévisions météorologiques de plus de 4000 aéroports (messages METAR et TAF).

Les stations disponibles sont représentées par des disques jaunes et rouges sur la carte.

Passer la souris dessus pour voir le nom de la station.

Cliquer dessus pour voir les observations et prévisions météorologiques.

Pour changer de carte: cliquez sur les boutons verts avec une croix noire pour zoomer, sur le bouton vert avec un tiret pour effectuer un zoom arrière, ou sur les flèches vertes pour les cartes adjacentes.


METAR-TAF: